createdAt,value
2022-11-25T00:01:29.491Z,26.10
2022-11-25T00:03:57.669Z,26.83
2022-11-25T00:06:26.785Z,26.80
2022-11-25T00:09:01.701Z,27.48
2022-11-25T00:11:28.746Z,27.08
2022-11-25T00:13:56.616Z,27.25
2022-11-25T00:16:24.573Z,27.95
2022-11-25T00:18:52.971Z,27.73
2022-11-25T00:21:23.180Z,28.23
2022-11-25T00:23:58.373Z,28.33
2022-11-25T00:26:26.525Z,29.08
2022-11-25T00:28:53.508Z,28.80
2022-11-25T00:31:22.982Z,28.35
2022-11-25T00:33:50.402Z,29.65
2022-11-25T00:36:22.662Z,29.95
2022-11-25T00:38:56.744Z,29.73
2022-11-25T00:41:42.718Z,30.98
2022-11-25T00:44:29.923Z,30.05
2022-11-25T00:46:56.411Z,29.45
2022-11-25T00:49:23.003Z,30.75
2022-11-25T00:51:49.483Z,32.03
2022-11-25T00:54:16.085Z,32.55
2022-11-25T00:56:42.584Z,30.23
2022-11-25T00:59:09.589Z,30.55
2022-11-25T01:01:36.542Z,32.25
2022-11-25T01:04:04.071Z,33.97
2022-11-25T01:06:30.560Z,33.72
2022-11-25T01:08:57.001Z,33.88
2022-11-25T01:11:24.294Z,33.20
2022-11-25T01:13:52.236Z,33.65
2022-11-25T01:16:21.234Z,32.45
2022-11-25T01:18:48.633Z,32.88
2022-11-25T01:21:23.728Z,34.10
2022-11-25T01:23:51.061Z,34.33
2022-11-25T01:26:20.139Z,31.40
2022-11-25T01:28:47.072Z,34.08
2022-11-25T01:31:15.346Z,32.70
2022-11-25T01:33:42.144Z,32.90
2022-11-25T01:36:11.565Z,33.08
2022-11-25T01:38:38.615Z,33.38
2022-11-25T01:41:06.649Z,33.42
2022-11-25T01:43:33.415Z,33.08
2022-11-25T01:46:05.983Z,34.60
2022-11-25T01:48:46.815Z,34.70
2022-11-25T01:51:38.521Z,33.23
2022-11-25T01:54:08.741Z,34.78
2022-11-25T01:56:42.088Z,35.72
2022-11-25T01:59:08.674Z,36.33
2022-11-25T02:01:35.235Z,36.80
2022-11-25T02:04:02.309Z,36.90
2022-11-25T02:07:25.543Z,36.38
2022-11-25T02:09:52.944Z,38.50
2022-11-25T02:12:20.593Z,38.15
2022-11-25T02:14:50.718Z,38.00
2022-11-25T02:17:17.534Z,39.85
2022-11-25T02:20:04.556Z,38.33
2022-11-25T02:22:40.615Z,38.42
2022-11-25T02:25:32.679Z,37.80
2022-11-25T02:28:05.987Z,38.50
2022-11-25T02:30:33.479Z,39.45
2022-11-25T02:33:00.776Z,36.97
2022-11-25T02:35:36.740Z,37.22
2022-11-25T02:38:05.855Z,35.08
2022-11-25T02:40:34.580Z,37.00
2022-11-25T02:43:01.101Z,37.55
2022-11-25T02:45:45.172Z,39.13
2022-11-25T02:48:11.654Z,37.95
2022-11-25T02:50:38.104Z,40.65
2022-11-25T02:53:04.811Z,40.95
2022-11-25T02:55:31.260Z,39.92
2022-11-25T02:57:57.714Z,39.15
2022-11-25T03:00:24.565Z,38.65
2022-11-25T03:02:53.612Z,39.05
2022-11-25T03:05:21.783Z,38.35
2022-11-25T03:07:48.433Z,37.67
2022-11-25T03:10:14.963Z,36.60
2022-11-25T03:12:41.379Z,36.10
2022-11-25T03:15:08.282Z,33.83
2022-11-25T03:17:34.737Z,36.45
2022-11-25T03:20:01.146Z,32.85
2022-11-25T03:22:27.730Z,33.30
2022-11-25T03:24:54.151Z,34.20
2022-11-25T03:27:20.758Z,31.50
2022-11-25T03:29:47.292Z,32.00
2022-11-25T03:32:13.768Z,31.95
2022-11-25T03:34:40.550Z,29.40
2022-11-25T03:37:07.179Z,29.08
2022-11-25T03:39:33.653Z,30.08
2022-11-25T03:42:00.086Z,28.35
2022-11-25T03:44:26.517Z,29.40
2022-11-25T03:46:53.117Z,28.10
2022-11-25T03:49:21.691Z,30.50
2022-11-25T03:51:49.078Z,29.30
2022-11-25T03:54:15.515Z,30.38
2022-11-25T03:56:42.110Z,28.85
2022-11-25T03:59:08.504Z,30.38
2022-11-25T04:01:35.176Z,29.83
2022-11-25T04:04:02.526Z,28.63
2022-11-25T04:06:29.319Z,29.50
2022-11-25T04:08:55.816Z,29.63
2022-11-25T04:11:22.235Z,28.05
2022-11-25T04:13:48.654Z,28.13
2022-11-25T04:16:26.338Z,28.52
2022-11-25T04:18:52.841Z,28.17
2022-11-25T04:21:19.420Z,27.52
2022-11-25T04:23:45.844Z,28.15
2022-11-25T04:26:12.353Z,26.73
2022-11-25T04:28:38.862Z,26.73
2022-11-25T04:31:09.312Z,25.88
2022-11-25T04:33:35.765Z,25.67
2022-11-25T04:36:02.181Z,25.60
2022-11-25T04:38:29.074Z,26.75
2022-11-25T04:40:55.509Z,26.50
2022-11-25T04:43:21.933Z,25.88
2022-11-25T04:46:13.056Z,26.65
2022-11-25T04:48:35.259Z,26.00
2022-11-25T04:51:01.793Z,26.52
2022-11-25T04:53:28.206Z,26.00
2022-11-25T04:55:54.635Z,26.00
2022-11-25T04:58:41.028Z,26.48
2022-11-25T05:01:07.573Z,26.45
2022-11-25T05:03:34.022Z,26.33
2022-11-25T05:06:05.086Z,26.63
2022-11-25T05:08:32.032Z,27.08
2022-11-25T05:10:59.337Z,25.90
2022-11-25T05:13:26.090Z,27.80
2022-11-25T05:15:52.510Z,26.58
2022-11-25T05:18:18.970Z,27.40
2022-11-25T05:20:45.618Z,26.92
2022-11-25T05:23:12.038Z,27.88
2022-11-25T05:25:38.557Z,34.25
2022-11-25T05:28:05.243Z,28.33
2022-11-25T05:30:31.736Z,27.73
2022-11-25T05:32:58.240Z,27.20
2022-11-25T05:35:24.788Z,26.17
2022-11-25T05:37:51.257Z,27.95
2022-11-25T05:40:17.826Z,26.13
2022-11-25T05:42:44.291Z,26.85
2022-11-25T05:45:11.191Z,28.23
2022-11-25T05:47:37.674Z,28.35
2022-11-25T05:50:04.538Z,29.35
2022-11-25T05:52:30.951Z,30.42
2022-11-25T05:54:57.694Z,29.80
2022-11-25T05:57:24.196Z,32.47
2022-11-25T05:59:50.657Z,31.30
2022-11-25T06:02:17.140Z,31.13
2022-11-25T06:04:43.662Z,32.20
2022-11-25T06:07:10.239Z,31.48
2022-11-25T06:09:36.716Z,31.63
2022-11-25T06:12:03.953Z,30.25
2022-11-25T06:14:32.108Z,32.13
2022-11-25T06:16:58.598Z,31.85
2022-11-25T06:19:25.133Z,33.03
2022-11-25T06:21:51.657Z,31.20
2022-11-25T06:24:18.275Z,30.92
2022-11-25T06:26:44.779Z,32.20
2022-11-25T06:29:11.496Z,30.02
2022-11-25T06:31:38.027Z,32.15
2022-11-25T06:34:06.535Z,30.80
2022-11-25T06:36:33.214Z,31.45
2022-11-25T06:38:59.648Z,32.45
2022-11-25T06:41:26.494Z,33.00
2022-11-25T06:43:53.168Z,33.80
2022-11-25T06:46:24.974Z,32.08
2022-11-25T06:48:53.444Z,32.80
2022-11-25T06:51:20.149Z,34.60
2022-11-25T06:53:46.680Z,33.72
2022-11-25T06:56:15.863Z,32.08
2022-11-25T06:58:43.993Z,32.65
2022-11-25T07:01:28.636Z,33.28
2022-11-25T07:03:59.756Z,32.40
2022-11-25T07:06:27.411Z,32.90
2022-11-25T07:08:54.361Z,32.53
2022-11-25T07:11:24.671Z,34.10
2022-11-25T07:13:56.842Z,32.95
2022-11-25T07:16:23.442Z,34.78
2022-11-25T07:18:50.047Z,35.15
2022-11-25T07:21:19.408Z,35.55
2022-11-25T07:23:47.155Z,34.28
2022-11-25T07:26:21.639Z,34.20
2022-11-25T07:28:49.412Z,34.45
2022-11-25T07:31:28.694Z,33.90
2022-11-25T07:34:03.921Z,33.75
2022-11-25T07:36:31.907Z,32.33
2022-11-25T07:39:00.471Z,34.00
2022-11-25T07:41:28.366Z,33.83
2022-11-25T07:43:59.157Z,34.55
2022-11-25T07:46:31.330Z,24.55
2022-11-25T07:49:02.556Z,33.58
2022-11-25T07:51:32.561Z,30.90
2022-11-25T07:54:01.270Z,33.70
2022-11-25T07:56:28.723Z,32.22
2022-11-25T07:58:56.843Z,32.38
2022-11-25T08:01:23.572Z,30.30
2022-11-25T08:03:51.328Z,30.52
2022-11-25T08:06:25.253Z,30.98
2022-11-25T08:08:54.671Z,28.88
2022-11-25T08:11:27.187Z,31.20
2022-11-25T08:13:54.492Z,30.17
2022-11-25T08:16:23.902Z,31.02
2022-11-25T08:18:50.747Z,31.80
2022-11-25T08:21:18.045Z,30.90
2022-11-25T08:23:47.961Z,29.35
2022-11-25T08:26:18.104Z,30.63
2022-11-25T08:28:45.465Z,30.55
2022-11-25T08:31:19.229Z,30.00
2022-11-25T08:33:46.887Z,30.30
2022-11-25T08:36:14.211Z,29.63
2022-11-25T08:38:42.504Z,30.98
2022-11-25T08:41:11.974Z,28.23
2022-11-25T08:43:39.567Z,27.98
2022-11-25T08:46:11.612Z,27.20
2022-11-25T08:48:38.993Z,27.35
2022-11-25T08:51:20.746Z,27.48
2022-11-25T08:56:15.138Z,24.92
2022-11-25T08:58:42.194Z,25.90
2022-11-25T09:01:10.815Z,27.13
2022-11-25T09:03:43.577Z,28.98
2022-11-25T09:06:11.174Z,30.00
2022-11-25T09:08:40.073Z,30.02
2022-11-25T09:11:07.866Z,27.92
2022-11-25T09:13:38.026Z,26.73
2022-11-25T09:16:05.632Z,27.75
2022-11-25T09:18:32.688Z,25.75
2022-11-25T09:20:59.788Z,25.80
2022-11-25T09:23:27.193Z,26.35
2022-11-25T09:25:58.037Z,23.55
2022-11-25T09:28:26.813Z,24.38
2022-11-25T09:30:53.558Z,24.45
2022-11-25T09:33:20.429Z,23.73
2022-11-25T09:35:47.491Z,21.55
2022-11-25T09:38:14.299Z,19.17
2022-11-25T09:40:51.152Z,19.27
2022-11-25T09:44:12.047Z,17.90
2022-11-25T09:47:00.390Z,17.05
2022-11-25T09:49:30.815Z,16.38
2022-11-25T09:52:37.148Z,16.20
2022-11-25T09:55:26.585Z,18.58
2022-11-25T09:58:00.027Z,16.80
2022-11-25T10:00:37.633Z,16.58
2022-11-25T10:03:15.335Z,15.75
2022-11-25T10:05:52.851Z,15.18
2022-11-25T10:08:25.257Z,17.58
2022-11-25T10:11:22.862Z,16.17
2022-11-25T10:14:46.273Z,16.35
2022-11-25T10:17:25.429Z,15.00
2022-11-25T10:20:04.900Z,15.73
2022-11-25T10:22:34.894Z,16.05
2022-11-25T10:25:23.782Z,15.80
2022-11-25T10:27:55.790Z,16.00
2022-11-25T10:30:33.091Z,15.55
2022-11-25T10:33:22.656Z,15.38
2022-11-25T10:36:22.120Z,16.13
2022-11-25T10:39:13.624Z,16.83
2022-11-25T10:41:55.173Z,18.83
2022-11-25T10:44:37.707Z,16.15
2022-11-25T10:47:43.301Z,17.23
2022-11-25T10:50:59.115Z,17.00
2022-11-25T10:53:30.807Z,17.60
2022-11-25T10:58:49.540Z,16.33
2022-11-25T11:01:25.856Z,16.30
2022-11-25T11:04:19.071Z,15.35
2022-11-25T11:06:48.413Z,15.90
2022-11-25T11:09:34.500Z,16.17
2022-11-25T11:12:15.512Z,15.93
2022-11-25T11:14:42.069Z,15.05
2022-11-25T11:17:35.999Z,16.05
2022-11-25T11:20:09.629Z,15.88
2022-11-25T11:22:47.443Z,15.60
2022-11-25T11:25:27.775Z,15.10
2022-11-25T11:27:55.001Z,15.00
2022-11-25T11:30:26.640Z,14.10
2022-11-25T11:35:50.925Z,13.77
2022-11-25T11:38:40.690Z,14.35
2022-11-25T11:41:53.854Z,15.10
2022-11-25T11:44:54.746Z,14.23
2022-11-25T11:47:43.811Z,16.13
2022-11-25T11:50:25.032Z,16.08
2022-11-25T11:53:47.218Z,16.83
2022-11-25T12:00:09.595Z,18.52
2022-11-25T12:02:59.207Z,15.07
2022-11-25T12:05:37.296Z,14.18
2022-11-25T12:08:13.672Z,13.77
2022-11-25T12:10:45.274Z,13.85
2022-11-25T12:13:32.933Z,16.40
2022-11-25T12:16:16.301Z,18.42
2022-11-25T12:19:04.165Z,20.35
2022-11-25T12:21:36.310Z,21.15
2022-11-25T12:24:17.334Z,20.02
2022-11-25T12:27:03.745Z,22.17
2022-11-25T12:30:19.118Z,25.10
2022-11-25T12:33:34.893Z,24.60
2022-11-25T12:36:56.843Z,27.92
2022-11-25T12:39:45.725Z,28.02
2022-11-25T12:42:32.840Z,29.27
2022-11-25T12:45:18.404Z,27.77
2022-11-25T12:47:45.448Z,27.98
2022-11-25T12:50:18.948Z,27.83
2022-11-25T12:53:00.535Z,28.67
2022-11-25T12:55:30.834Z,26.17
2022-11-25T13:07:54.286Z,24.10
2022-11-25T13:19:23.340Z,23.58
2022-11-25T13:30:37.730Z,23.83
2022-11-25T13:36:23.100Z,24.15
2022-11-25T13:38:56.696Z,23.83
2022-11-25T13:41:47.483Z,23.38
2022-11-25T13:44:49.025Z,24.58
2022-11-25T13:47:40.771Z,25.60
2022-11-25T13:51:10.774Z,26.10
2022-11-25T13:53:53.036Z,28.67
2022-11-25T13:56:32.525Z,27.95
2022-11-25T13:59:44.323Z,30.00
2022-11-25T14:02:58.743Z,32.17
2022-11-25T14:08:37.851Z,29.90
2022-11-25T14:14:01.211Z,30.88
2022-11-25T14:43:02.365Z,33.27
2022-11-25T16:12:25.751Z,35.60
2022-11-25T16:37:24.531Z,33.38
2022-11-25T16:39:57.728Z,33.75
2022-11-25T16:42:34.158Z,32.08
2022-11-25T16:47:55.534Z,34.50
2022-11-25T16:58:44.204Z,31.17
2022-11-25T17:07:30.671Z,31.88
2022-11-25T17:18:06.896Z,30.67
2022-11-25T17:32:13.527Z,30.88
2022-11-25T17:37:24.047Z,32.22
2022-11-25T17:39:54.434Z,32.25
2022-11-25T17:42:28.612Z,30.35
2022-11-25T17:44:55.844Z,27.98
2022-11-25T17:47:22.560Z,27.15
2022-11-25T17:49:49.691Z,25.58
2022-11-25T17:52:16.968Z,25.38
2022-11-25T17:54:43.666Z,26.35
2022-11-25T17:57:18.960Z,26.92
2022-11-25T17:59:45.624Z,28.20
2022-11-25T18:02:21.500Z,26.90
2022-11-25T18:04:50.546Z,26.58
2022-11-25T18:07:17.858Z,26.45
2022-11-25T18:09:45.664Z,27.80
2022-11-25T18:12:30.942Z,26.80
2022-11-25T18:14:57.877Z,24.42
2022-11-25T18:17:24.849Z,23.88
2022-11-25T18:19:54.866Z,26.00
2022-11-25T18:22:24.595Z,23.88
2022-11-25T18:24:52.480Z,24.17
2022-11-25T18:27:29.908Z,25.25
2022-11-25T18:29:57.382Z,26.05
2022-11-25T18:32:25.745Z,24.55
2022-11-25T18:34:52.652Z,26.27
2022-11-25T20:42:22.368Z,20.00
2022-11-25T20:44:54.695Z,21.38
2022-11-25T20:47:26.082Z,20.88
2022-11-25T21:35:40.760Z,19.45
2022-11-25T21:38:14.964Z,20.48
2022-11-25T21:51:27.505Z,19.92
2022-11-25T21:53:54.555Z,19.17
2022-11-25T22:04:55.452Z,19.70
2022-11-25T22:10:12.054Z,19.77
2022-11-25T22:12:41.684Z,18.15
2022-11-25T22:15:20.852Z,19.73
2022-11-25T22:20:34.325Z,20.13
2022-11-25T22:23:01.730Z,20.13
2022-11-25T22:25:31.191Z,20.38
2022-11-25T22:27:57.705Z,20.08
2022-11-25T22:33:03.109Z,19.92
2022-11-25T22:35:29.759Z,20.17
2022-11-25T22:37:56.258Z,19.25
2022-11-25T22:40:23.966Z,19.15
2022-11-25T22:42:52.049Z,18.80
2022-11-25T22:45:32.966Z,18.77
2022-11-25T22:48:04.649Z,20.15
2022-11-25T22:53:00.250Z,18.00
2022-11-25T22:55:29.851Z,20.77
2022-11-25T22:57:58.703Z,21.50
2022-11-25T23:00:28.247Z,21.88
2022-11-25T23:02:56.788Z,22.45
2022-11-25T23:05:34.745Z,21.90
2022-11-25T23:08:09.158Z,22.70
2022-11-25T23:10:35.645Z,23.15
2022-11-25T23:13:02.069Z,24.63
2022-11-25T23:15:29.454Z,22.40
2022-11-25T23:17:58.379Z,24.60
2022-11-25T23:20:30.485Z,24.27
2022-11-25T23:22:57.866Z,26.52
2022-11-25T23:25:24.901Z,26.45
2022-11-25T23:27:51.352Z,27.85
2022-11-25T23:30:22.899Z,27.42
2022-11-25T23:32:51.478Z,27.38
2022-11-25T23:35:21.645Z,28.33
2022-11-25T23:37:55.021Z,28.50
2022-11-25T23:40:24.018Z,28.98
2022-11-25T23:42:52.490Z,29.80
2022-11-25T23:45:21.343Z,30.17
2022-11-25T23:47:49.797Z,28.33
2022-11-25T23:50:32.407Z,30.17
2022-11-25T23:53:07.657Z,29.92
2022-11-25T23:55:37.186Z,29.83
